Time,TemperatureF,DewpointF,PressureIn,WindDirection,WindDirectionDegrees,WindSpeedMPH,WindSpeedGustMPH,Humidity,HourlyPrecipIn,Conditions,Clouds,dailyrainin,SoftwareType,DateUTC
2013-03-27 00:04:00,34.2,30.2,30.39,ENE,60,0.0,0.0,85,0.00,,---,0.00,VWS V14.01,2013-03-27 05:04:00,
2013-03-27 00:09:00,34.1,30.1,30.39,ENE,60,0.0,0.0,85,0.00,,---,0.00,VWS V14.01,2013-03-27 05:09:00,
2013-03-27 00:14:00,33.9,30.2,30.39,ENE,60,0.0,0.0,86,0.00,,---,0.00,VWS V14.01,2013-03-27 05:14:00,
2013-03-27 00:19:00,33.8,29.8,30.39,ENE,60,0.0,0.0,85,0.00,,---,0.00,VWS V14.01,2013-03-27 05:19:00,
2013-03-27 00:24:00,33.7,30.0,30.39,ENE,60,0.0,0.0,86,0.00,,---,0.00,VWS V14.01,2013-03-27 05:24:00,
2013-03-27 00:29:00,33.5,29.8,30.39,ENE,60,0.0,0.0,86,0.00,,---,0.00,VWS V14.01,2013-03-27 05:29:00,
2013-03-27 00:34:00,33.3,29.6,30.39,ENE,60,0.0,0.0,86,0.00,,---,0.00,VWS V14.01,2013-03-27 05:34:00,
2013-03-27 00:36:00,33.2,29.5,30.39,ENE,60,0.0,0.0,86,0.00,,---,0.00,VWS V14.01,2013-03-27 05:36:00,
2013-03-27 00:39:00,33.0,29.6,30.39,ENE,60,0.0,0.0,87,0.00,,---,0.00,VWS V14.01,2013-03-27 05:39:00,
2013-03-27 00:44:00,32.9,29.5,30.39,ENE,60,0.0,0.0,87,0.00,,---,0.00,VWS V14.01,2013-03-27 05:44:00,
2013-03-27 00:49:00,33.0,29.6,30.39,ENE,60,0.0,0.0,87,0.00,,---,0.00,VWS V14.01,2013-03-27 05:49:00,
2013-03-27 00:54:00,32.9,29.5,30.39,ENE,60,0.0,0.0,87,0.00,,---,0.00,VWS V14.01,2013-03-27 05:54:00,
2013-03-27 00:59:00,32.8,29.4,30.38,ENE,60,0.0,0.0,87,0.00,,---,0.00,VWS V14.01,2013-03-27 05:59:00,
2013-03-27 01:04:00,32.7,29.5,30.38,ENE,60,0.0,0.0,88,0.00,,---,0.00,VWS V14.01,2013-03-27 06:04:00,
2013-03-27 01:06:00,32.7,29.5,30.38,ENE,60,0.0,0.0,88,0.00,,---,0.00,VWS V14.01,2013-03-27 06:06:00,
2013-03-27 01:09:00,32.7,29.5,30.38,ENE,60,0.0,0.0,88,0.00,,---,0.00,VWS V14.01,2013-03-27 06:09:00,
2013-03-27 01:14:00,32.5,29.4,30.38,ENE,60,0.0,0.0,88,0.00,,---,0.00,VWS V14.01,2013-03-27 06:14:00,
2013-03-27 01:19:00,32.4,29.2,30.38,ENE,60,0.0,0.0,88,0.00,,---,0.00,VWS V14.01,2013-03-27 06:19:00,
2013-03-27 01:24:00,32.2,29.0,30.38,ENE,60,0.0,0.0,88,0.00,,---,0.00,VWS V14.01,2013-03-27 06:24:00,
2013-03-27 01:29:00,32.0,28.9,30.38,ENE,60,0.0,0.0,88,0.00,,---,0.00,VWS V14.01,2013-03-27 06:29:00,
2013-03-27 01:34:00,32.0,28.9,30.38,ENE,60,0.0,0.0,88,0.00,,---,0.00,VWS V14.01,2013-03-27 06:34:00,
2013-03-27 01:39:00,32.0,28.9,30.38,ENE,60,0.0,0.0,88,0.00,,---,0.00,VWS V14.01,2013-03-27 06:39:00,
2013-03-27 01:44:00,31.9,29.0,30.38,ENE,60,0.0,0.0,89,0.00,,---,0.00,VWS V14.01,2013-03-27 06:44:00,
2013-03-27 01:49:00,32.0,29.1,30.38,ENE,60,0.0,0.0,89,0.00,,---,0.00,VWS V14.01,2013-03-27 06:49:00,
2013-03-27 01:54:00,31.9,29.0,30.39,ENE,60,0.0,0.0,89,0.00,,---,0.00,VWS V14.01,2013-03-27 06:54:00,
2013-03-27 01:59:00,31.9,29.0,30.38,ENE,60,0.0,0.0,89,0.00,,---,0.00,VWS V14.01,2013-03-27 06:59:00,
2013-03-27 02:04:00,31.7,28.8,30.38,ENE,60,0.0,0.0,89,0.00,,---,0.00,VWS V14.01,2013-03-27 07:04:00,
2013-03-27 02:06:00,31.7,28.8,30.38,ENE,60,0.0,0.0,89,0.00,,---,0.00,VWS V14.01,2013-03-27 07:06:00,
2013-03-27 02:09:00,31.7,28.8,30.38,ENE,60,0.0,0.0,89,0.00,,---,0.00,VWS V14.01,2013-03-27 07:09:00,
2013-03-27 02:14:00,31.7,28.8,30.38,ENE,60,0.0,0.0,89,0.00,,---,0.00,VWS V14.01,2013-03-27 07:14:00,
2013-03-27 02:19:00,31.6,28.7,30.38,ENE,60,0.0,0.0,89,0.00,,---,0.00,VWS V14.01,2013-03-27 07:19:00,
2013-03-27 02:24:00,31.7,28.8,30.38,ENE,60,0.0,0.0,89,0.00,,---,0.00,VWS V14.01,2013-03-27 07:24:00,
2013-03-27 02:29:00,31.5,28.6,30.38,ENE,60,0.0,0.0,89,0.00,,---,0.00,VWS V14.01,2013-03-27 07:29:00,
2013-03-27 02:34:00,31.4,28.8,30.38,ENE,60,0.0,0.0,90,0.00,,---,0.00,VWS V14.01,2013-03-27 07:34:00,
2013-03-27 02:39:00,31.4,28.8,30.38,ENE,60,0.0,0.0,90,0.00,,---,0.00,VWS V14.01,2013-03-27 07:39:00,
2013-03-27 02:44:00,31.3,28.7,30.38,ENE,60,0.0,0.0,90,0.00,,---,0.00,VWS V14.01,2013-03-27 07:44:00,
2013-03-27 02:49:00,31.1,28.5,30.38,ENE,60,0.0,0.0,90,0.00,,---,0.00,VWS V14.01,2013-03-27 07:49:00,
2013-03-27 02:54:00,31.0,28.4,30.38,ENE,60,0.0,0.0,90,0.00,,---,0.00,VWS V14.01,2013-03-27 07:54:00,
2013-03-27 02:59:00,31.2,28.9,30.38,ENE,60,0.0,0.0,91,0.00,,---,0.00,VWS V14.01,2013-03-27 07:59:00,
2013-03-27 03:04:00,31.1,28.5,30.38,ENE,60,0.0,0.0,90,0.00,,---,0.00,VWS V14.01,2013-03-27 08:04:00,
2013-03-27 03:06:00,31.2,28.6,30.38,ENE,60,0.0,0.0,90,0.00,,---,0.00,VWS V14.01,2013-03-27 08:06:00,
2013-03-27 03:14:00,31.0,28.4,30.37,ENE,60,0.0,0.0,90,0.00,,---,0.00,VWS V14.01,2013-03-27 08:14:00,
2013-03-27 03:19:00,31.0,28.7,30.37,ENE,60,0.0,0.0,91,0.00,,---,0.00,VWS V14.01,2013-03-27 08:19:00,
2013-03-27 03:24:00,31.0,28.7,30.37,ENE,60,0.0,0.0,91,0.00,,---,0.00,VWS V14.01,2013-03-27 08:24:00,
2013-03-27 03:29:00,31.0,28.7,30.37,ENE,60,0.0,0.0,91,0.00,,---,0.00,VWS V14.01,2013-03-27 08:29:00,
2013-03-27 03:34:00,30.8,28.5,30.37,ENE,60,0.0,0.0,91,0.00,,---,0.00,VWS V14.01,2013-03-27 08:34:00,
2013-03-27 03:36:00,30.8,28.5,30.37,ENE,60,0.0,0.0,91,0.00,,---,0.00,VWS V14.01,2013-03-27 08:36:00,
2013-03-27 03:39:00,30.8,28.5,30.37,ENE,60,0.0,0.0,91,0.00,,---,0.00,VWS V14.01,2013-03-27 08:39:00,
2013-03-27 03:44:00,30.7,28.4,30.37,ENE,60,0.0,0.0,91,0.00,,---,0.00,VWS V14.01,2013-03-27 08:44:00,
2013-03-27 03:49:00,30.6,28.3,30.37,ENE,60,0.0,0.0,91,0.00,,---,0.00,VWS V14.01,2013-03-27 08:49:00,
2013-03-27 03:54:00,30.4,28.1,30.37,ENE,60,0.0,0.0,91,0.00,,---,0.00,VWS V14.01,2013-03-27 08:54:00,
2013-03-27 03:59:00,30.3,28.0,30.37,ENE,60,0.0,0.0,91,0.00,,---,0.00,VWS V14.01,2013-03-27 08:59:00,
2013-03-27 04:04:00,30.2,28.2,30.37,ENE,60,0.0,0.0,92,0.00,,---,0.00,VWS V14.01,2013-03-27 09:04:00,
2013-03-27 04:10:00,30.3,28.3,30.37,ENE,60,0.0,0.0,92,0.00,,---,0.00,VWS V14.01,2013-03-27 09:10:00,
2013-03-27 04:15:00,30.3,28.3,30.37,ENE,60,0.0,0.0,92,0.00,,---,0.00,VWS V14.01,2013-03-27 09:15:00,
2013-03-27 04:20:00,30.3,28.3,30.37,ENE,60,0.0,0.0,92,0.00,,---,0.00,VWS V14.01,2013-03-27 09:20:00,
2013-03-27 04:25:00,30.2,28.2,30.37,ENE,60,0.0,0.0,92,0.00,,---,0.00,VWS V14.01,2013-03-27 09:25:00,
2013-03-27 04:30:00,30.2,28.2,30.37,ENE,60,0.0,0.0,92,0.00,,---,0.00,VWS V14.01,2013-03-27 09:30:00,
2013-03-27 04:35:00,30.0,28.0,30.37,ENE,60,0.0,0.0,92,0.00,,---,0.00,VWS V14.01,2013-03-27 09:35:00,
2013-03-27 04:36:00,30.0,28.0,30.38,ENE,60,0.0,0.0,92,0.00,,---,0.00,VWS V14.01,2013-03-27 09:36:00,
2013-03-27 04:40:00,29.9,27.9,30.37,ENE,60,0.0,0.0,92,0.00,,---,0.00,VWS V14.01,2013-03-27 09:40:00,
2013-03-27 04:45:00,29.8,27.8,30.37,ENE,60,0.0,0.0,92,0.00,,---,0.00,VWS V14.01,2013-03-27 09:45:00,
2013-03-27 04:50:00,29.9,27.9,30.37,ENE,60,0.0,0.0,92,0.00,,---,0.00,VWS V14.01,2013-03-27 09:50:00,
2013-03-27 04:55:00,29.9,27.9,30.37,ENE,60,0.0,0.0,92,0.00,,---,0.00,VWS V14.01,2013-03-27 09:55:00,
2013-03-27 05:00:00,29.8,27.8,30.37,ENE,60,0.0,0.0,92,0.00,,---,0.00,VWS V14.01,2013-03-27 10:00:00,
2013-03-27 05:05:00,29.8,27.8,30.37,ENE,60,0.0,0.0,92,0.00,,---,0.00,VWS V14.01,2013-03-27 10:05:00,
2013-03-27 05:06:00,29.8,27.8,30.37,ENE,60,0.0,0.0,92,0.00,,---,0.00,VWS V14.01,2013-03-27 10:06:00,
2013-03-27 05:10:00,29.7,27.7,30.37,ENE,60,0.0,0.0,92,0.00,,---,0.00,VWS V14.01,2013-03-27 10:10:00,
2013-03-27 05:15:00,29.8,28.0,30.37,ENE,60,0.0,1.0,93,0.00,,---,0.00,VWS V14.01,2013-03-27 10:15:00,
2013-03-27 05:20:00,29.8,28.0,30.37,ENE,60,0.0,1.0,93,0.00,,---,0.00,VWS V14.01,2013-03-27 10:20:00,
2013-03-27 05:25:00,29.9,28.1,30.37,ENE,60,0.0,1.0,93,0.00,,---,0.00,VWS V14.01,2013-03-27 10:25:00,
2013-03-27 05:30:00,29.8,28.0,30.37,ENE,60,0.0,1.0,93,0.00,,---,0.00,VWS V14.01,2013-03-27 10:30:00,
2013-03-27 05:35:00,29.9,28.1,30.37,ENE,60,0.0,1.0,93,0.00,,---,0.00,VWS V14.01,2013-03-27 10:35:00,
2013-03-27 05:40:00,29.8,28.0,30.38,ENE,60,0.0,0.0,93,0.00,,---,0.00,VWS V14.01,2013-03-27 10:40:00,
2013-03-27 05:45:00,29.7,27.9,30.38,ENE,60,0.0,0.0,93,0.00,,---,0.00,VWS V14.01,2013-03-27 10:45:00,
2013-03-27 05:50:00,30.0,28.2,30.38,ENE,60,0.0,0.0,93,0.00,,---,0.00,VWS V14.01,2013-03-27 10:50:00,
2013-03-27 05:55:00,29.9,28.1,30.38,ENE,60,0.0,0.0,93,0.00,,---,0.00,VWS V14.01,2013-03-27 10:55:00,
2013-03-27 06:00:00,29.8,28.0,30.39,ENE,60,0.0,0.0,93,0.00,,---,0.00,VWS V14.01,2013-03-27 11:00:00,
2013-03-27 06:05:00,29.7,27.9,30.39,ENE,60,0.0,0.0,93,0.00,,---,0.00,VWS V14.01,2013-03-27 11:05:00,
2013-03-27 06:06:00,29.7,27.9,30.39,ENE,60,0.0,0.0,93,0.00,,---,0.00,VWS V14.01,2013-03-27 11:06:00,
2013-03-27 06:15:00,29.8,28.0,30.39,ENE,60,0.0,0.0,93,0.00,,---,0.00,VWS V14.01,2013-03-27 11:15:00,
2013-03-27 06:20:00,29.7,27.9,30.40,ENE,60,0.0,0.0,93,0.00,,---,0.00,VWS V14.01,2013-03-27 11:20:00,
2013-03-27 06:25:00,29.6,27.8,30.40,ENE,60,0.0,0.0,93,0.00,,---,0.00,VWS V14.01,2013-03-27 11:25:00,
2013-03-27 06:30:00,29.5,27.7,30.40,ENE,60,0.0,0.0,93,0.00,,---,0.00,VWS V14.01,2013-03-27 11:30:00,
2013-03-27 06:35:00,29.5,27.7,30.40,ENE,60,0.0,0.0,93,0.00,,---,0.00,VWS V14.01,2013-03-27 11:35:00,
2013-03-27 06:36:00,29.6,27.8,30.40,ENE,60,0.0,0.0,93,0.00,,---,0.00,VWS V14.01,2013-03-27 11:36:00,
2013-03-27 06:40:00,29.7,27.9,30.40,ENE,60,0.0,0.0,93,0.00,,---,0.00,VWS V14.01,2013-03-27 11:40:00,
2013-03-27 06:45:00,29.8,28.0,30.40,ENE,60,0.0,0.0,93,0.00,,---,0.00,VWS V14.01,2013-03-27 11:45:00,
2013-03-27 06:50:00,29.8,28.0,30.40,ENE,60,0.0,0.0,93,0.00,,---,0.00,VWS V14.01,2013-03-27 11:50:00,
2013-03-27 06:55:00,29.8,28.0,30.40,ENE,60,0.0,0.0,93,0.00,,---,0.00,VWS V14.01,2013-03-27 11:55:00,
2013-03-27 07:00:00,29.8,28.0,30.40,ENE,60,0.0,0.0,93,0.00,,---,0.00,VWS V14.01,2013-03-27 12:00:00,
2013-03-27 07:05:00,29.7,27.9,30.40,ENE,60,0.0,0.0,93,0.00,,---,0.00,VWS V14.01,2013-03-27 12:05:00,
2013-03-27 07:06:00,29.7,27.9,30.40,ENE,60,0.0,0.0,93,0.00,,---,0.00,VWS V14.01,2013-03-27 12:06:00,
2013-03-27 07:10:00,29.7,27.9,30.40,ENE,60,0.0,0.0,93,0.00,,---,0.00,VWS V14.01,2013-03-27 12:10:00,
2013-03-27 07:15:00,29.6,27.8,30.40,ENE,60,0.0,0.0,93,0.00,,---,0.00,VWS V14.01,2013-03-27 12:15:00,
2013-03-27 07:20:00,29.7,27.9,30.41,ENE,60,0.0,0.0,93,0.00,,---,0.00,VWS V14.01,2013-03-27 12:20:00,
2013-03-27 07:25:00,29.6,27.8,30.41,ENE,60,0.0,0.0,93,0.00,,---,0.00,VWS V14.01,2013-03-27 12:25:00,
2013-03-27 07:30:00,29.8,28.0,30.41,ENE,60,0.0,0.0,93,0.00,,---,0.00,VWS V14.01,2013-03-27 12:30:00,
2013-03-27 07:35:00,30.1,28.3,30.41,ENE,60,0.0,0.0,93,0.00,,---,0.00,VWS V14.01,2013-03-27 12:35:00,
2013-03-27 07:36:00,30.1,28.3,30.41,ENE,60,0.0,0.0,93,0.00,,---,0.00,VWS V14.01,2013-03-27 12:36:00,
2013-03-27 07:40:00,30.2,28.7,30.42,ENE,60,0.0,0.0,94,0.00,,---,0.00,VWS V14.01,2013-03-27 12:40:00,
2013-03-27 07:45:00,30.6,28.8,30.42,ENE,59,0.0,0.0,93,0.00,,---,0.00,VWS V14.01,2013-03-27 12:45:00,
2013-03-27 07:50:00,31.0,29.5,30.42,ENE,60,0.0,0.0,94,0.00,,---,0.00,VWS V14.01,2013-03-27 12:50:00,
2013-03-27 07:55:00,31.5,29.7,30.42,ENE,60,0.0,0.0,93,0.00,,---,0.00,VWS V14.01,2013-03-27 12:55:00,
2013-03-27 08:00:00,31.9,30.1,30.42,ENE,60,0.0,0.0,93,0.00,,---,0.00,VWS V14.01,2013-03-27 13:00:00,
2013-03-27 08:05:00,32.4,30.6,30.42,ENE,60,0.0,0.0,93,0.00,,---,0.00,VWS V14.01,2013-03-27 13:05:00,
2013-03-27 08:06:00,32.5,30.7,30.42,ENE,60,0.0,0.0,93,0.00,,---,0.00,VWS V14.01,2013-03-27 13:06:00,
2013-03-27 08:10:00,33.0,31.2,30.42,ENE,60,0.0,0.0,93,0.00,,---,0.00,VWS V14.01,2013-03-27 13:10:00,
2013-03-27 08:15:00,33.5,31.7,30.42,ENE,60,0.0,0.0,93,0.00,,---,0.00,VWS V14.01,2013-03-27 13:15:00,
2013-03-27 08:20:00,34.0,32.2,30.43,ENE,60,0.0,0.0,93,0.00,,---,0.00,VWS V14.01,2013-03-27 13:20:00,
2013-03-27 08:25:00,34.7,32.6,30.43,ENE,60,0.0,0.0,92,0.00,,---,0.00,VWS V14.01,2013-03-27 13:25:00,
2013-03-27 08:30:00,35.7,33.3,30.43,ENE,60,0.0,0.0,91,0.00,,---,0.00,VWS V14.01,2013-03-27 13:30:00,
2013-03-27 08:35:00,36.8,33.9,30.43,ENE,60,0.0,1.0,89,0.00,,---,0.00,VWS V14.01,2013-03-27 13:35:00,
2013-03-27 08:36:00,36.9,33.7,30.43,East,90,0.0,2.0,88,0.00,,---,0.00,VWS V14.01,2013-03-27 13:36:00,
2013-03-27 08:40:00,37.8,33.7,30.43,East,79,0.0,1.0,85,0.00,,---,0.00,VWS V14.01,2013-03-27 13:40:00,
2013-03-27 08:45:00,38.5,34.1,30.44,SSW,206,0.0,3.0,84,0.00,,---,0.00,VWS V14.01,2013-03-27 13:45:00,
2013-03-27 08:50:00,39.4,34.1,30.44,SSW,211,1.0,3.0,81,0.00,,---,0.00,VWS V14.01,2013-03-27 13:50:00,
2013-03-27 08:55:00,40.7,35.0,30.44,WSW,241,1.0,3.0,80,0.00,,---,0.00,VWS V14.01,2013-03-27 13:55:00,
2013-03-27 09:00:00,41.9,36.2,30.44,WSW,241,0.0,3.0,80,0.00,,---,0.00,VWS V14.01,2013-03-27 14:00:00,
2013-03-27 09:05:00,42.8,36.1,30.45,SW,217,0.0,4.0,77,0.00,,---,0.00,VWS V14.01,2013-03-27 14:05:00,
2013-03-27 09:06:00,42.9,35.5,30.45,SW,217,1.0,4.0,75,0.00,,---,0.00,VWS V14.01,2013-03-27 14:06:00,
2013-03-27 09:10:00,43.2,34.5,30.45,SW,232,5.0,5.0,71,0.00,,---,0.00,VWS V14.01,2013-03-27 14:10:00,
2013-03-27 09:15:00,43.7,34.2,30.45,West,264,2.0,7.0,69,0.00,,---,0.00,VWS V14.01,2013-03-27 14:15:00,
2013-03-27 09:20:00,44.5,35.7,30.45,WSW,258,0.0,7.0,71,0.00,,---,0.00,VWS V14.01,2013-03-27 14:20:00,
2013-03-27 09:25:00,45.4,35.5,30.45,WNW,303,1.0,7.0,68,0.00,,---,0.00,VWS V14.01,2013-03-27 14:25:00,
2013-03-27 09:30:00,46.1,35.8,30.45,SE,134,1.0,7.0,67,0.00,,---,0.00,VWS V14.01,2013-03-27 14:30:00,
2013-03-27 09:36:00,46.7,35.2,30.45,SW,234,4.0,7.0,64,0.00,,---,0.00,VWS V14.01,2013-03-27 14:36:00,
2013-03-27 09:41:00,46.6,34.7,30.45,SW,217,1.0,7.0,63,0.00,,---,0.00,VWS V14.01,2013-03-27 14:41:00,
2013-03-27 09:46:00,47.1,35.6,30.45,ESE,104,2.0,7.0,64,0.00,,---,0.00,VWS V14.01,2013-03-27 14:46:00,
2013-03-27 09:51:00,48.5,36.5,30.45,SSW,200,1.0,7.0,63,0.00,,---,0.00,VWS V14.01,2013-03-27 14:51:00,
2013-03-27 09:56:00,48.6,35.8,30.45,ENE,67,1.0,7.0,61,0.00,,---,0.00,VWS V14.01,2013-03-27 14:56:00,
2013-03-27 10:01:00,49.6,34.6,30.45,SE,126,2.0,7.0,56,0.00,,---,0.00,VWS V14.01,2013-03-27 15:01:00,
2013-03-27 10:06:00,49.7,33.8,30.45,SE,135,0.0,7.0,54,0.00,,---,0.00,VWS V14.01,2013-03-27 15:06:00,
2013-03-27 10:11:00,50.5,34.0,30.45,ESE,114,3.0,5.0,53,0.00,,---,0.00,VWS V14.01,2013-03-27 15:11:00,
2013-03-27 10:16:00,51.1,34.6,30.45,SE,126,4.0,5.0,53,0.00,,---,0.00,VWS V14.01,2013-03-27 15:16:00,
2013-03-27 10:21:00,51.2,32.7,30.45,ESE,115,3.0,6.0,49,0.00,,---,0.00,VWS V14.01,2013-03-27 15:21:00,
2013-03-27 10:31:00,51.8,34.3,30.44,East,86,1.0,6.0,51,0.00,,---,0.00,VWS V14.01,2013-03-27 15:31:00,
2013-03-27 10:36:00,52.5,33.4,30.45,East,85,1.0,6.0,48,0.00,,---,0.00,VWS V14.01,2013-03-27 15:36:00,
2013-03-27 10:41:00,52.3,32.2,30.44,ESE,123,4.0,7.0,46,0.00,,---,0.00,VWS V14.01,2013-03-27 15:41:00,
2013-03-27 10:51:00,53.3,30.8,30.44,ESE,110,2.0,7.0,42,0.00,,---,0.00,VWS V14.01,2013-03-27 15:51:00,
2013-03-27 10:56:00,53.2,31.9,30.45,ESE,112,4.0,8.0,44,0.00,,---,0.00,VWS V14.01,2013-03-27 15:56:00,
2013-03-27 11:01:00,53.8,33.0,30.44,ESE,118,3.0,8.0,45,0.00,,---,0.00,VWS V14.01,2013-03-27 16:01:00,
2013-03-27 11:06:00,53.4,30.3,30.44,East,97,5.0,5.0,41,0.00,,---,0.00,VWS V14.01,2013-03-27 16:06:00,
2013-03-27 11:12:00,53.3,31.4,30.44,ESE,111,5.0,7.0,43,0.00,,---,0.00,VWS V14.01,2013-03-27 16:12:00,
2013-03-27 11:17:00,54.1,32.1,30.44,SE,137,0.0,7.0,43,0.00,,---,0.00,VWS V14.01,2013-03-27 16:17:00,
2013-03-27 11:22:00,55.1,31.2,30.44,SE,133,3.0,8.0,40,0.00,,---,0.00,VWS V14.01,2013-03-27 16:22:00,
2013-03-27 11:27:00,54.6,30.2,30.44,SE,142,0.0,8.0,39,0.00,,---,0.00,VWS V14.01,2013-03-27 16:27:00,
2013-03-27 11:32:00,53.9,31.4,30.44,SW,215,0.0,8.0,42,0.00,,---,0.00,VWS V14.01,2013-03-27 16:32:00,
2013-03-27 11:36:00,55.1,31.8,30.44,WSW,257,1.0,8.0,41,0.00,,---,0.00,VWS V14.01,2013-03-27 16:36:00,
2013-03-27 11:37:00,55.2,31.9,30.44,West,277,3.0,3.0,41,0.00,,---,0.00,VWS V14.01,2013-03-27 16:37:00,
2013-03-27 11:42:00,54.8,30.3,30.44,West,271,1.0,8.0,39,0.00,,---,0.00,VWS V14.01,2013-03-27 16:42:00,
2013-03-27 11:47:00,54.3,29.2,30.44,SW,219,3.0,8.0,38,0.00,,---,0.00,VWS V14.01,2013-03-27 16:47:00,
2013-03-27 11:52:00,55.3,31.4,30.44,WNW,284,6.0,8.0,40,0.00,,---,0.00,VWS V14.01,2013-03-27 16:52:00,
2013-03-27 11:57:00,55.5,30.3,30.43,West,278,6.0,9.0,38,0.00,,---,0.00,VWS V14.01,2013-03-27 16:57:00,
2013-03-27 12:02:00,55.4,30.2,30.43,WNW,289,3.0,9.0,38,0.00,,---,0.00,VWS V14.01,2013-03-27 17:02:00,
2013-03-27 12:07:00,56.2,33.4,30.43,West,267,5.0,8.0,42,0.00,,---,0.00,VWS V14.01,2013-03-27 17:07:00,
2013-03-27 12:12:00,56.5,32.5,30.42,East,81,2.0,8.0,40,0.00,,---,0.00,VWS V14.01,2013-03-27 17:12:00,
2013-03-27 12:17:00,56.8,31.5,30.42,WSW,256,3.0,8.0,38,0.00,,---,0.00,VWS V14.01,2013-03-27 17:17:00,
2013-03-27 12:22:00,56.3,31.0,30.42,SW,235,7.0,8.0,38,0.00,,---,0.00,VWS V14.01,2013-03-27 17:22:00,
2013-03-27 12:27:00,57.0,33.5,30.41,East,93,2.0,8.0,41,0.00,,---,0.00,VWS V14.01,2013-03-27 17:27:00,
2013-03-27 12:32:00,58.6,31.8,30.41,WNW,299,3.0,8.0,36,0.00,,---,0.00,VWS V14.01,2013-03-27 17:32:00,
2013-03-27 12:36:00,58.3,31.5,30.41,East,92,3.0,8.0,36,0.00,,---,0.00,VWS V14.01,2013-03-27 17:36:00,
2013-03-27 12:37:00,58.0,30.5,30.41,ESE,120,3.0,3.0,35,0.00,,---,0.00,VWS V14.01,2013-03-27 17:37:00,
2013-03-27 12:42:00,57.7,31.0,30.41,ESE,123,4.0,5.0,36,0.00,,---,0.00,VWS V14.01,2013-03-27 17:42:00,
2013-03-27 12:47:00,57.3,30.6,30.41,WNW,298,3.0,5.0,36,0.00,,---,0.00,VWS V14.01,2013-03-27 17:47:00,
2013-03-27 12:52:00,57.9,29.0,30.40,East,94,3.0,5.0,33,0.00,,---,0.00,VWS V14.01,2013-03-27 17:52:00,
2013-03-27 12:57:00,58.1,29.2,30.40,WSW,251,2.0,6.0,33,0.00,,---,0.00,VWS V14.01,2013-03-27 17:57:00,
2013-03-27 13:02:00,59.1,32.2,30.40,SSW,213,4.0,6.0,36,0.00,,---,0.00,VWS V14.01,2013-03-27 18:02:00,
2013-03-27 13:07:00,59.3,33.0,30.40,NNE,13,2.0,3.0,37,0.00,,---,0.00,VWS V14.01,2013-03-27 18:07:00,
2013-03-27 13:12:00,58.7,31.1,30.39,East,86,2.0,5.0,35,0.00,,---,0.00,VWS V14.01,2013-03-27 18:12:00,
2013-03-27 13:17:00,59.1,30.0,30.39,East,92,2.0,8.0,33,0.00,,---,0.00,VWS V14.01,2013-03-27 18:17:00,
2013-03-27 13:22:00,59.3,33.0,30.39,SSE,153,4.0,8.0,37,0.00,,---,0.00,VWS V14.01,2013-03-27 18:22:00,
2013-03-27 13:27:00,59.9,30.0,30.38,East,88,2.0,8.0,32,0.00,,---,0.00,VWS V14.01,2013-03-27 18:27:00,
2013-03-27 13:32:00,59.8,30.7,30.38,ESE,109,3.0,8.0,33,0.00,,---,0.00,VWS V14.01,2013-03-27 18:32:00,
2013-03-27 13:36:00,59.7,29.8,30.38,SW,223,5.0,8.0,32,0.00,,---,0.00,VWS V14.01,2013-03-27 18:36:00,
2013-03-27 13:37:00,59.5,29.6,30.38,SW,225,5.0,7.0,32,0.00,,---,0.00,VWS V14.01,2013-03-27 18:37:00,
2013-03-27 13:42:00,59.4,30.3,30.37,SSE,149,1.0,7.0,33,0.00,,---,0.00,VWS V14.01,2013-03-27 18:42:00,
2013-03-27 13:47:00,61.4,33.5,30.37,ESE,119,2.0,7.0,35,0.00,,---,0.00,VWS V14.01,2013-03-27 18:47:00,
2013-03-27 13:52:00,60.5,28.9,30.37,ESE,109,1.0,7.0,30,0.00,,---,0.00,VWS V14.01,2013-03-27 18:52:00,
2013-03-27 13:57:00,60.7,30.7,30.36,East,80,3.0,7.0,32,0.00,,---,0.00,VWS V14.01,2013-03-27 18:57:00,
2013-03-27 14:02:00,60.0,29.3,30.36,East,92,3.0,7.0,31,0.00,,---,0.00,VWS V14.01,2013-03-27 19:02:00,
2013-03-27 14:08:00,60.7,31.5,30.35,ENE,65,4.0,4.0,33,0.00,,---,0.00,VWS V14.01,2013-03-27 19:08:00,
2013-03-27 14:13:00,61.2,31.1,30.35,ESE,116,2.0,8.0,32,0.00,,---,0.00,VWS V14.01,2013-03-27 19:13:00,
2013-03-27 14:18:00,61.2,33.3,30.35,SSW,213,2.0,8.0,35,0.00,,---,0.00,VWS V14.01,2013-03-27 19:18:00,
2013-03-27 14:23:00,61.2,30.4,30.34,SSW,213,0.0,8.0,31,0.00,,---,0.00,VWS V14.01,2013-03-27 19:23:00,
2013-03-27 14:28:00,61.8,30.9,30.34,WSW,246,3.0,8.0,31,0.00,,---,0.00,VWS V14.01,2013-03-27 19:28:00,
2013-03-27 14:33:00,60.8,30.0,30.34,WSW,238,3.0,8.0,31,0.00,,---,0.00,VWS V14.01,2013-03-27 19:33:00,
2013-03-27 14:38:00,61.1,30.3,30.34,SE,124,4.0,6.0,31,0.00,,---,0.00,VWS V14.01,2013-03-27 19:38:00,
2013-03-27 14:43:00,61.5,29.0,30.34,ESE,115,1.0,6.0,29,0.00,,---,0.00,VWS V14.01,2013-03-27 19:43:00,
2013-03-27 14:48:00,62.1,31.1,30.34,West,269,4.0,6.0,31,0.00,,---,0.00,VWS V14.01,2013-03-27 19:48:00,
2013-03-27 14:53:00,61.8,30.1,30.34,NNE,16,2.0,6.0,30,0.00,,---,0.00,VWS V14.01,2013-03-27 19:53:00,
2013-03-27 14:58:00,62.8,31.7,30.33,ENE,78,2.0,6.0,31,0.00,,---,0.00,VWS V14.01,2013-03-27 19:58:00,
2013-03-27 15:03:00,62.9,31.8,30.33,West,264,5.0,7.0,31,0.00,,---,0.00,VWS V14.01,2013-03-27 20:03:00,
2013-03-27 15:08:00,63.6,30.8,30.32,ESE,114,3.0,4.0,29,0.00,,---,0.00,VWS V14.01,2013-03-27 20:08:00,
2013-03-27 15:13:00,62.4,28.9,30.32,SE,130,3.0,4.0,28,0.00,,---,0.00,VWS V14.01,2013-03-27 20:13:00,
2013-03-27 15:18:00,62.9,31.8,30.32,ESE,118,1.0,4.0,31,0.00,,---,0.00,VWS V14.01,2013-03-27 20:18:00,
2013-03-27 15:23:00,62.7,31.6,30.31,ESE,111,1.0,7.0,31,0.00,,---,0.00,VWS V14.01,2013-03-27 20:23:00,
2013-03-27 15:28:00,62.9,31.8,30.31,WSW,237,0.0,10.0,31,0.00,,---,0.00,VWS V14.01,2013-03-27 20:28:00,
2013-03-27 15:33:00,63.6,34.0,30.31,SSE,161,0.0,10.0,33,0.00,,---,0.00,VWS V14.01,2013-03-27 20:33:00,
2013-03-27 15:38:00,63.4,29.8,30.31,ESE,103,2.0,3.0,28,0.00,,---,0.00,VWS V14.01,2013-03-27 20:38:00,
2013-03-27 15:43:00,63.2,31.3,30.30,NE,36,0.0,5.0,30,0.00,,---,0.00,VWS V14.01,2013-03-27 20:43:00,
2013-03-27 15:48:00,63.9,32.7,30.30,ENE,69,4.0,5.0,31,0.00,,---,0.00,VWS V14.01,2013-03-27 20:48:00,
2013-03-27 15:53:00,64.4,31.5,30.30,SW,214,6.0,8.0,29,0.00,,---,0.00,VWS V14.01,2013-03-27 20:53:00,
2013-03-27 15:58:00,63.9,31.0,30.30,East,92,1.0,8.0,29,0.00,,---,0.00,VWS V14.01,2013-03-27 20:58:00,
2013-03-27 16:03:00,63.5,31.5,30.30,NNE,22,4.0,8.0,30,0.00,,---,0.00,VWS V14.01,2013-03-27 21:03:00,
2013-03-27 16:08:00,63.8,33.4,30.29,SSE,151,1.0,4.0,32,0.00,,---,0.00,VWS V14.01,2013-03-27 21:08:00,
2013-03-27 16:13:00,63.6,30.8,30.29,East,94,2.0,4.0,29,0.00,,---,0.00,VWS V14.01,2013-03-27 21:13:00,
2013-03-27 16:18:00,63.3,30.5,30.29,ENE,67,2.0,5.0,29,0.00,,---,0.00,VWS V14.01,2013-03-27 21:18:00,
2013-03-27 16:23:00,63.8,31.0,30.29,East,94,2.0,5.0,29,0.00,,---,0.00,VWS V14.01,2013-03-27 21:23:00,
2013-03-27 16:28:00,64.3,32.2,30.28,WNW,288,5.0,7.0,30,0.00,,---,0.00,VWS V14.01,2013-03-27 21:28:00,
2013-03-27 16:33:00,64.5,31.6,30.28,WSW,243,2.0,7.0,29,0.00,,---,0.00,VWS V14.01,2013-03-27 21:33:00,
2013-03-27 16:38:00,64.3,32.2,30.28,SSW,211,0.0,4.0,30,0.00,,---,0.00,VWS V14.01,2013-03-27 21:38:00,
2013-03-27 16:43:00,64.3,30.5,30.28,SE,125,2.0,6.0,28,0.00,,---,0.00,VWS V14.01,2013-03-27 21:43:00,
2013-03-27 16:48:00,63.9,31.9,30.27,South,184,3.0,6.0,30,0.00,,---,0.00,VWS V14.01,2013-03-27 21:48:00,
2013-03-27 16:53:00,64.3,32.2,30.27,SSW,212,0.0,6.0,30,0.00,,---,0.00,VWS V14.01,2013-03-27 21:53:00,
2013-03-27 16:58:00,64.6,30.8,30.27,WSW,246,1.0,6.0,28,0.00,,---,0.00,VWS V14.01,2013-03-27 21:58:00,
2013-03-27 17:03:00,65.2,33.8,30.27,East,95,2.0,6.0,31,0.00,,---,0.00,VWS V14.01,2013-03-27 22:03:00,
2013-03-27 17:06:00,64.9,32.8,30.27,West,277,2.0,6.0,30,0.00,,---,0.00,VWS V14.01,2013-03-27 22:06:00,
2013-03-27 17:08:00,64.7,33.4,30.27,SW,227,0.0,3.0,31,0.00,,---,0.00,VWS V14.01,2013-03-27 22:08:00,
2013-03-27 17:13:00,64.4,31.5,30.27,SSE,157,0.0,3.0,29,0.00,,---,0.00,VWS V14.01,2013-03-27 22:13:00,
2013-03-27 17:18:00,64.1,31.2,30.27,ESE,105,1.0,3.0,29,0.00,,---,0.00,VWS V14.01,2013-03-27 22:18:00,
2013-03-27 17:23:00,64.2,33.0,30.27,ENE,77,2.0,3.0,31,0.00,,---,0.00,VWS V14.01,2013-03-27 22:23:00,
2013-03-27 17:28:00,64.0,32.8,30.27,ESE,123,1.0,3.0,31,0.00,,---,0.00,VWS V14.01,2013-03-27 22:28:00,
2013-03-27 17:33:00,63.9,31.9,30.27,ESE,119,0.0,3.0,30,0.00,,---,0.00,VWS V14.01,2013-03-27 22:33:00,
2013-03-27 17:36:00,64.1,32.9,30.27,ESE,118,3.0,3.0,31,0.00,,---,0.00,VWS V14.01,2013-03-27 22:36:00,
2013-03-27 17:38:00,64.0,31.1,30.27,ESE,119,1.0,3.0,29,0.00,,---,0.00,VWS V14.01,2013-03-27 22:38:00,
2013-03-27 17:43:00,64.2,32.2,30.27,South,183,2.0,4.0,30,0.00,,---,0.00,VWS V14.01,2013-03-27 22:43:00,
2013-03-27 17:48:00,63.9,31.9,30.27,ESE,123,2.0,4.0,30,0.00,,---,0.00,VWS V14.01,2013-03-27 22:48:00,
2013-03-27 17:53:00,63.8,31.8,30.27,SE,124,2.0,4.0,30,0.00,,---,0.00,VWS V14.01,2013-03-27 22:53:00,
2013-03-27 17:58:00,63.4,32.3,30.27,ESE,110,2.0,4.0,31,0.00,,---,0.00,VWS V14.01,2013-03-27 22:58:00,
2013-03-27 18:03:00,63.4,32.3,30.26,ESE,109,1.0,4.0,31,0.00,,---,0.00,VWS V14.01,2013-03-27 23:03:00,
2013-03-27 18:06:00,63.2,32.1,30.26,East,82,1.0,4.0,31,0.00,,---,0.00,VWS V14.01,2013-03-27 23:06:00,
2013-03-27 18:08:00,63.3,33.0,30.26,SW,227,1.0,2.0,32,0.00,,---,0.00,VWS V14.01,2013-03-27 23:08:00,
2013-03-27 18:13:00,62.9,32.6,30.26,SE,132,0.0,4.0,32,0.00,,---,0.00,VWS V14.01,2013-03-27 23:13:00,
2013-03-27 18:18:00,62.6,31.6,30.26,SE,132,2.0,4.0,31,0.00,,---,0.00,VWS V14.01,2013-03-27 23:18:00,
2013-03-27 18:23:00,62.6,32.3,30.26,SE,126,1.0,4.0,32,0.00,,---,0.00,VWS V14.01,2013-03-27 23:23:00,
2013-03-27 18:28:00,62.3,32.9,30.26,SE,126,0.0,4.0,33,0.00,,---,0.00,VWS V14.01,2013-03-27 23:28:00,
2013-03-27 18:33:00,62.1,31.9,30.26,SE,126,1.0,4.0,32,0.00,,---,0.00,VWS V14.01,2013-03-27 23:33:00,
2013-03-27 18:36:00,62.0,32.6,30.26,SE,124,2.0,4.0,33,0.00,,---,0.00,VWS V14.01,2013-03-27 23:36:00,
2013-03-27 18:43:00,61.6,33.0,30.26,SE,124,2.0,3.0,34,0.00,,---,0.00,VWS V14.01,2013-03-27 23:43:00,
2013-03-27 18:48:00,61.3,33.4,30.25,ESE,121,1.0,3.0,35,0.00,,---,0.00,VWS V14.01,2013-03-27 23:48:00,
2013-03-27 18:53:00,61.1,32.5,30.25,ESE,121,1.0,3.0,34,0.00,,---,0.00,VWS V14.01,2013-03-27 23:53:00,
2013-03-27 18:58:00,60.4,34.7,30.25,ESE,121,0.0,3.0,38,0.00,,---,0.00,VWS V14.01,2013-03-27 23:58:00,
2013-03-27 19:03:00,59.6,34.0,30.25,ESE,121,0.0,3.0,38,0.00,,---,0.00,VWS V14.01,2013-03-28 00:03:00,
2013-03-27 19:06:00,59.4,34.5,30.25,ESE,121,1.0,3.0,39,0.00,,---,0.00,VWS V14.01,2013-03-28 00:06:00,
2013-03-27 19:08:00,59.0,34.7,30.24,ESE,120,0.0,1.0,40,0.00,,---,0.00,VWS V14.01,2013-03-28 00:08:00,
2013-03-27 19:13:00,58.5,34.9,30.24,ESE,120,0.0,1.0,41,0.00,,---,0.00,VWS V14.01,2013-03-28 00:13:00,
2013-03-27 19:18:00,58.0,35.1,30.24,ESE,121,0.0,1.0,42,0.00,,---,0.00,VWS V14.01,2013-03-28 00:18:00,
2013-03-27 19:23:00,57.2,35.5,30.24,ESE,121,0.0,1.0,44,0.00,,---,0.00,VWS V14.01,2013-03-28 00:23:00,
2013-03-27 19:29:00,56.3,35.8,30.24,ESE,121,0.0,1.0,46,0.00,,---,0.00,VWS V14.01,2013-03-28 00:29:00,
2013-03-27 19:34:00,55.6,37.3,30.24,ESE,121,0.0,1.0,50,0.00,,---,0.00,VWS V14.01,2013-03-28 00:34:00,
2013-03-27 19:39:00,54.5,38.2,30.24,ESE,121,0.0,0.0,54,0.00,,---,0.00,VWS V14.01,2013-03-28 00:39:00,
2013-03-27 19:44:00,53.4,39.0,30.24,ESE,121,0.0,0.0,58,0.00,,---,0.00,VWS V14.01,2013-03-28 00:44:00,
2013-03-27 19:49:00,52.4,38.5,30.24,ESE,121,0.0,0.0,59,0.00,,---,0.00,VWS V14.01,2013-03-28 00:49:00,
2013-03-27 19:54:00,52.0,38.1,30.24,ESE,121,0.0,0.0,59,0.00,,---,0.00,VWS V14.01,2013-03-28 00:54:00,
2013-03-27 19:59:00,51.9,38.5,30.25,ESE,121,0.0,0.0,60,0.00,,---,0.00,VWS V14.01,2013-03-28 00:59:00,
2013-03-27 20:04:00,51.6,38.2,30.25,ESE,121,0.0,0.0,60,0.00,,---,0.00,VWS V14.01,2013-03-28 01:04:00,
2013-03-27 20:09:00,50.9,38.0,30.25,ESE,121,0.0,0.0,61,0.00,,---,0.00,VWS V14.01,2013-03-28 01:09:00,
2013-03-27 20:14:00,50.8,38.3,30.25,ESE,121,0.0,0.0,62,0.00,,---,0.00,VWS V14.01,2013-03-28 01:14:00,
2013-03-27 20:19:00,50.3,37.8,30.25,ESE,121,0.0,0.0,62,0.00,,---,0.00,VWS V14.01,2013-03-28 01:19:00,
2013-03-27 20:24:00,49.8,38.1,30.25,ESE,121,0.0,0.0,64,0.00,,---,0.00,VWS V14.01,2013-03-28 01:24:00,
2013-03-27 20:29:00,49.8,38.1,30.25,ESE,121,0.0,0.0,64,0.00,,---,0.00,VWS V14.01,2013-03-28 01:29:00,
2013-03-27 20:34:00,49.6,37.5,30.25,ESE,121,0.0,0.0,63,0.00,,---,0.00,VWS V14.01,2013-03-28 01:34:00,
2013-03-27 20:39:00,49.2,38.0,30.25,ESE,121,0.0,0.0,65,0.00,,---,0.00,VWS V14.01,2013-03-28 01:39:00,
2013-03-27 20:44:00,48.8,38.0,30.25,ESE,121,0.0,0.0,66,0.00,,---,0.00,VWS V14.01,2013-03-28 01:44:00,
2013-03-27 20:49:00,48.5,37.7,30.25,ESE,121,0.0,1.0,66,0.00,,---,0.00,VWS V14.01,2013-03-28 01:49:00,
2013-03-27 20:54:00,48.5,39.5,30.25,ESE,121,0.0,1.0,71,0.00,,---,0.00,VWS V14.01,2013-03-28 01:54:00,
2013-03-27 20:59:00,48.2,39.2,30.26,ESE,121,0.0,1.0,71,0.00,,---,0.00,VWS V14.01,2013-03-28 01:59:00,
2013-03-27 21:04:00,48.1,38.8,30.26,ESE,121,0.0,1.0,70,0.00,,---,0.00,VWS V14.01,2013-03-28 02:04:00,
2013-03-27 21:06:00,47.9,39.0,30.26,ESE,121,0.0,1.0,71,0.00,,---,0.00,VWS V14.01,2013-03-28 02:06:00,
2013-03-27 21:09:00,47.7,38.8,30.26,ESE,121,0.0,1.0,71,0.00,,---,0.00,VWS V14.01,2013-03-28 02:09:00,
2013-03-27 21:14:00,47.3,38.7,30.26,ESE,121,0.0,1.0,72,0.00,,---,0.00,VWS V14.01,2013-03-28 02:14:00,
2013-03-27 21:19:00,47.1,37.8,30.27,ESE,121,0.0,1.0,70,0.00,,---,0.00,VWS V14.01,2013-03-28 02:19:00,
2013-03-27 21:24:00,46.9,37.6,30.27,ESE,121,0.0,1.0,70,0.00,,---,0.00,VWS V14.01,2013-03-28 02:24:00,
2013-03-27 21:29:00,46.4,37.9,30.27,ESE,121,0.0,1.0,72,0.00,,---,0.00,VWS V14.01,2013-03-28 02:29:00,
2013-03-27 21:34:00,46.2,38.0,30.27,ESE,121,0.0,1.0,73,0.00,,---,0.00,VWS V14.01,2013-03-28 02:34:00,
2013-03-27 21:36:00,46.1,37.9,30.27,ESE,121,0.0,1.0,73,0.00,,---,0.00,VWS V14.01,2013-03-28 02:36:00,
2013-03-27 21:39:00,46.2,37.7,30.27,ESE,121,0.0,0.0,72,0.00,,---,0.00,VWS V14.01,2013-03-28 02:39:00,
2013-03-27 21:44:00,45.8,37.7,30.27,ESE,121,0.0,0.0,73,0.00,,---,0.00,VWS V14.01,2013-03-28 02:44:00,
2013-03-27 21:49:00,45.5,37.0,30.28,ESE,121,0.0,0.0,72,0.00,,---,0.00,VWS V14.01,2013-03-28 02:49:00,
2013-03-27 21:54:00,45.4,37.3,30.28,ESE,121,0.0,0.0,73,0.00,,---,0.00,VWS V14.01,2013-03-28 02:54:00,
2013-03-27 21:59:00,45.4,36.9,30.28,ESE,121,0.0,0.0,72,0.00,,---,0.00,VWS V14.01,2013-03-28 02:59:00,
2013-03-27 22:04:00,45.3,36.5,30.28,ESE,121,0.0,0.0,71,0.00,,---,0.00,VWS V14.01,2013-03-28 03:04:00,
2013-03-27 22:09:00,45.1,36.6,30.29,ESE,121,0.0,0.0,72,0.00,,---,0.00,VWS V14.01,2013-03-28 03:09:00,
2013-03-27 22:14:00,44.9,37.1,30.29,ESE,121,0.0,1.0,74,0.00,,---,0.00,VWS V14.01,2013-03-28 03:14:00,
2013-03-27 22:19:00,44.6,36.8,30.29,ESE,121,0.0,1.0,74,0.00,,---,0.00,VWS V14.01,2013-03-28 03:19:00,
2013-03-27 22:24:00,44.3,36.9,30.29,ESE,121,0.0,1.0,75,0.00,,---,0.00,VWS V14.01,2013-03-28 03:24:00,
2013-03-27 22:29:00,44.2,36.8,30.29,ESE,121,0.0,1.0,75,0.00,,---,0.00,VWS V14.01,2013-03-28 03:29:00,
2013-03-27 22:34:00,44.1,36.7,30.29,ESE,121,0.0,1.0,75,0.00,,---,0.00,VWS V14.01,2013-03-28 03:34:00,
2013-03-27 22:36:00,44.0,36.9,30.29,ESE,121,0.0,1.0,76,0.00,,---,0.00,VWS V14.01,2013-03-28 03:36:00,
2013-03-27 22:39:00,43.8,36.7,30.29,ESE,121,0.0,0.0,76,0.00,,---,0.00,VWS V14.01,2013-03-28 03:39:00,
2013-03-27 22:44:00,43.5,36.5,30.29,ESE,121,0.0,0.0,76,0.00,,---,0.00,VWS V14.01,2013-03-28 03:44:00,
2013-03-27 22:49:00,43.4,36.7,30.29,ESE,121,0.0,0.0,77,0.00,,---,0.00,VWS V14.01,2013-03-28 03:49:00,
2013-03-27 22:54:00,43.3,36.6,30.29,ESE,121,0.0,0.0,77,0.00,,---,0.00,VWS V14.01,2013-03-28 03:54:00,
2013-03-27 22:59:00,43.1,36.7,30.29,ESE,121,0.0,0.0,78,0.00,,---,0.00,VWS V14.01,2013-03-28 03:59:00,
2013-03-27 23:04:00,42.9,36.8,30.29,ESE,121,0.0,0.0,79,0.00,,---,0.00,VWS V14.01,2013-03-28 04:04:00,
2013-03-27 23:09:00,42.6,36.9,30.30,ESE,121,1.0,2.0,80,0.00,,---,0.00,VWS V14.01,2013-03-28 04:09:00,
2013-03-27 23:14:00,42.4,36.7,30.30,ESE,121,0.0,2.0,80,0.00,,---,0.00,VWS V14.01,2013-03-28 04:14:00,
2013-03-27 23:19:00,42.3,36.6,30.29,ESE,121,0.0,2.0,80,0.00,,---,0.00,VWS V14.01,2013-03-28 04:19:00,
2013-03-27 23:24:00,42.2,36.5,30.29,ESE,121,0.0,2.0,80,0.00,,---,0.00,VWS V14.01,2013-03-28 04:24:00,
2013-03-27 23:29:00,42.2,36.5,30.29,ESE,121,0.0,2.0,80,0.00,,---,0.00,VWS V14.01,2013-03-28 04:29:00,
2013-03-27 23:34:00,42.1,36.7,30.30,ESE,121,0.0,2.0,81,0.00,,---,0.00,VWS V14.01,2013-03-28 04:34:00,
2013-03-27 23:36:00,42.1,36.4,30.30,SSW,213,0.0,4.0,80,0.00,,---,0.00,VWS V14.01,2013-03-28 04:36:00,
2013-03-27 23:44:00,41.7,36.9,30.30,West,263,0.0,4.0,83,0.00,,---,0.00,VWS V14.01,2013-03-28 04:44:00,
2013-03-27 23:49:00,42.4,37.0,30.30,SW,234,0.0,6.0,81,0.00,,---,0.00,VWS V14.01,2013-03-28 04:49:00,
2013-03-27 23:54:00,42.7,37.3,30.30,WNW,298,2.0,6.0,81,0.00,,---,0.00,VWS V14.01,2013-03-28 04:54:00,
2013-03-27 23:59:00,43.3,37.6,30.30,SW,232,0.0,6.0,80,0.00,,---,0.00,VWS V14.01,2013-03-28 04:59:00,